Okeechobee, FL (34972)

7:55 AM EDT on July 03, 2015 (GMT -0400)
Okeechobee City | | Change Station
CLOSE
Current Station
Personal Weather Station
Location: Okeechobee, FL
Elevation: 33 ft
Nearby Weather Stations

Elev 33 ft 27.24 °N, 80.84 °W | Updated 2 seconds ago

Clear
Clear
76.3 °F
Feels Like 76 °F
N
3.5
Wind Variable Wind from ESE
Gusts 3.5 mph

Today
High -- | Low -- °F
--% Chance of Precip.
Yesterday
High -- | Low -- °F
Precip. -- in
6:32 AM 8:22 PM
Full, 97% visible
Pressure 30.10 in
Visibility 7.0 miles
Clouds Clear
Heat Index 76 °F
Dew Point 75 °F
Humidity 96%
Rainfall 0.00 in
Snow Depth Not available.
UV 1 out of 12
Pollen 4.40 out of 12
Air Quality Not available.
Flu Activity Not available.
METAR KOBE 031135Z AUTO 00000KT 7SM CLR 22/22 A3010 RMK AO2

More Conditions Fewer Conditions

Pressure 30.10 in
Visibility 7.0 miles
Clouds Clear
Heat Index 76 °F
Dew Point 75 °F
Humidity 96%
Rainfall 0.00 in
Snow Depth Not available.
UV 1 out of 12
Pollen 4.40 out of 12
Air Quality Not available.
Flu Activity Not available.
METAR KOBE 031135Z AUTO 00000KT 7SM CLR 22/22 A3010 RMK AO2

More Conditions Fewer Conditions

Nowcast | as of 6:30 am EDT on July 3, 2015

storm coverage expected to be lower today... A slightly drier air mass over east central Florida will lead to less overall coverage today. The best chance for afternoon and early evening storms today will be north of a line from Lake Kissimmee to Cape Canaveral as the east and West Coast sea breezes should collide from coastal Volusia County southward to the west side of Lake Okeechobee. A few strong storms will be possible later today...with wind gusts in excess of 40 mph...frequent lightning...torrential rainfall...and small hail. Additional details...including graphics are available online at: http://www.Srh.NOAA.Gov/mlb/blog.Php

×

10-Day Weather Forecast

×

Almanac

Astronomy

Jul. 03, 2015 Rise Set
Actual Time
Civil Twilight
Nautical Twilight
Astronomical Twilight
Moon
Length of Visible Light
Length of Day
Tomorrow will be .
, % of the Moon is Illuminated

Today's Extremes

State Highs State Lows

Community

WunderPhotos

Upload Photos

1,834,656 photos uploaded!

WunderBlogs® & News

Nearby

Air Quality

  Air Quality AQ Index Pollutant
Not available.

Snow Depth

Station Depth Elevation

Earthquake Activity

City Distance Mag. Time & Date
Minimum magnitude displayed is 2.5.

Coastal Water Temperatures

Place Temperature

Stations

Nearby Weather Stations

Station Location Temp. Windchill Dew Point Humidity Wind Precip. Elev Updated Type